Time;durP1;ratioP1;P1;durP2;ratioP2;P2;SDS_P1;SDS_P2;PMS_P1;PMS_P2;Temp;Humidity;BMP_temperature;BMP_pressure;BME280_temperature;BME280_humidity;BME280_pressure;Samples;Min_cycle;Max_cycle;Signal;HPM_P1;HPM_P2
2022/04/15 00:02:11;;;;;;;10.90;9.80;;;12.80;99.90;;;;;;5042656;28;20269;-73
2022/04/15 00:04:37;;;;;;;11.02;9.95;;;12.90;99.90;;;;;;5048348;28;20773;-73
2022/04/15 00:07:03;;;;;;;12.13;11.02;;;12.90;99.90;;;;;;5046022;28;20189;-73
2022/04/15 00:09:33;;;;;;;12.60;11.50;;;13.00;99.90;;;;;;5046103;28;20183;-73
2022/04/15 00:12:06;;;;;;;13.77;12.38;;;13.20;99.90;;;;;;5047780;28;20303;-74
2022/04/15 00:14:33;;;;;;;11.38;10.27;;;13.20;99.90;;;;;;5059746;28;20195;-73
2022/04/15 00:16:58;;;;;;;13.88;12.52;;;13.20;99.90;;;;;;5052940;28;20179;-74
2022/04/15 00:19:24;;;;;;;12.05;10.82;;;13.30;99.90;;;;;;5054110;28;20180;-73
2022/04/15 00:21:50;;;;;;;11.68;10.50;;;13.20;99.90;;;;;;5052798;28;20255;-75
2022/04/15 00:24:16;;;;;;;11.73;10.73;;;13.20;99.90;;;;;;5050533;28;20678;-74
2022/04/15 00:26:41;;;;;;;9.95;8.90;;;13.10;99.90;;;;;;5053274;28;20193;-74
2022/04/15 00:29:07;;;;;;;13.05;11.75;;;13.10;99.90;;;;;;5053937;28;20179;-73
2022/04/15 00:31:33;;;;;;;12.45;11.07;;;13.10;99.90;;;;;;5039459;28;20204;-74
2022/04/15 00:33:59;;;;;;;12.82;11.15;;;13.20;99.90;;;;;;5033643;28;20557;-74
2022/04/15 00:36:25;;;;;;;11.95;10.85;;;13.20;99.90;;;;;;5033794;28;20176;-74
2022/04/15 00:38:51;;;;;;;12.77;11.57;;;13.10;99.90;;;;;;5033950;28;20260;-74
2022/04/15 00:41:16;;;;;;;11.75;10.73;;;13.20;99.90;;;;;;5033848;28;20188;-74
2022/04/15 00:43:42;;;;;;;12.73;11.63;;;13.20;99.90;;;;;;5039341;28;20593;-74
2022/04/15 00:46:08;;;;;;;13.68;12.02;;;13.10;99.90;;;;;;5053524;28;20172;-74
2022/04/15 00:48:37;;;;;;;11.65;10.45;;;13.20;99.90;;;;;;5052908;28;20306;-76
2022/04/15 00:51:04;;;;;;;13.20;10.50;;;13.00;99.90;;;;;;5033641;28;20172;-73
2022/04/15 00:53:31;;;;;;;13.07;11.75;;;13.00;99.90;;;;;;5048369;28;20214;-74
2022/04/15 00:56:00;;;;;;;13.40;11.88;;;13.00;99.90;;;;;;5051984;28;20182;-73
2022/04/15 00:58:27;;;;;;;12.88;11.65;;;13.00;99.90;;;;;;5048904;28;20214;-73
2022/04/15 01:00:56;;;;;;;13.65;11.80;;;12.90;99.90;;;;;;5045562;28;20172;-73
2022/04/15 01:03:22;;;;;;;13.38;12.25;;;12.90;99.90;;;;;;5043511;28;20568;-73
2022/04/15 01:05:51;;;;;;;14.30;12.90;;;12.90;99.90;;;;;;5042152;28;20230;-72
2022/04/15 01:08:21;;;;;;;16.23;14.77;;;12.90;99.90;;;;;;5040982;28;20733;-73
2022/04/15 01:10:51;;;;;;;16.95;15.27;;;12.90;99.90;;;;;;5031306;28;20176;-74
2022/04/15 01:13:17;;;;;;;14.45;13.05;;;12.80;99.90;;;;;;5032993;28;20341;-73
2022/04/15 01:15:43;;;;;;;14.80;13.50;;;12.80;99.90;;;;;;5038743;28;20660;-73
2022/04/15 01:18:09;;;;;;;15.45;13.85;;;12.80;99.90;;;;;;5049016;28;20177;-73
2022/04/15 01:20:35;;;;;;;15.73;14.23;;;12.80;99.90;;;;;;5042849;28;20176;-74
2022/04/15 01:23:11;;;;;;;15.73;14.20;;;12.80;99.90;;;;;;5042067;28;20203;-74
2022/04/15 01:25:37;;;;;;;15.35;14.02;;;12.80;99.90;;;;;;5039696;28;20558;-78
2022/04/15 01:28:04;;;;;;;16.52;14.93;;;12.80;99.90;;;;;;5038309;28;20265;-74
2022/04/15 01:30:30;;;;;;;15.15;13.85;;;12.90;99.90;;;;;;5023857;28;20530;-73
2022/04/15 01:32:56;;;;;;;15.98;14.27;;;12.90;99.90;;;;;;5039029;28;20211;-74
2022/04/15 01:35:21;;;;;;;15.75;14.20;;;12.80;99.90;;;;;;5043556;28;20214;-74
2022/04/15 01:37:48;;;;;;;16.08;14.57;;;12.90;99.90;;;;;;5052053;28;20175;-74
2022/04/15 01:40:17;;;;;;;15.68;14.18;;;12.90;99.90;;;;;;5040183;28;20195;-74
2022/04/15 01:42:44;;;;;;;16.08;14.52;;;12.90;99.90;;;;;;5040482;28;20538;-74
2022/04/15 01:45:11;;;;;;;16.63;15.02;;;12.90;99.90;;;;;;5052093;28;20180;-74
2022/04/15 01:47:37;;;;;;;16.52;15.02;;;12.90;99.90;;;;;;5038981;28;20181;-74
2022/04/15 01:50:04;;;;;;;16.15;14.45;;;13.00;99.90;;;;;;5032455;28;20180;-73
2022/04/15 01:52:30;;;;;;;15.50;14.02;;;12.90;99.90;;;;;;5031961;28;20208;-73
2022/04/15 01:54:55;;;;;;;16.00;14.63;;;12.90;99.90;;;;;;5038215;28;20192;-74
2022/04/15 01:57:21;;;;;;;15.75;14.27;;;12.90;99.90;;;;;;5035116;28;20180;-74
2022/04/15 01:59:47;;;;;;;17.08;15.27;;;13.00;99.90;;;;;;5052235;28;20195;-74
2022/04/15 02:02:13;;;;;;;17.67;16.08;;;13.00;99.90;;;;;;5052155;28;20262;-73
2022/04/15 02:04:39;;;;;;;17.92;16.00;;;13.00;99.90;;;;;;5045361;28;20226;-73
2022/04/15 02:07:04;;;;;;;18.95;16.55;;;13.00;99.90;;;;;;5046362;28;20187;-76
2022/04/15 02:09:30;;;;;;;18.40;16.70;;;13.00;99.90;;;;;;5051843;28;20669;-74
2022/04/15 02:11:56;;;;;;;18.48;16.77;;;13.00;99.90;;;;;;5051872;28;20191;-76
2022/04/15 02:14:22;;;;;;;18.45;16.52;;;12.90;99.90;;;;;;5044535;28;20229;-76
2022/04/15 02:16:51;;;;;;;19.33;17.63;;;12.90;99.90;;;;;;5052539;28;20222;-77
2022/04/15 02:19:17;;;;;;;19.23;17.23;;;12.90;99.90;;;;;;5051296;28;20172;-74
2022/04/15 02:21:43;;;;;;;20.25;18.38;;;12.80;99.90;;;;;;5050156;28;20190;-74
2022/04/15 02:24:08;;;;;;;19.13;16.95;;;12.80;99.90;;;;;;5051962;28;20273;-74
2022/04/15 02:26:34;;;;;;;19.17;17.38;;;12.80;99.90;;;;;;5056036;28;20245;-74
2022/04/15 02:29:00;;;;;;;18.90;17.17;;;12.80;99.90;;;;;;5056083;28;20172;-74
2022/04/15 02:31:26;;;;;;;18.67;16.75;;;12.70;99.90;;;;;;5054017;28;20250;-74
2022/04/15 02:33:52;;;;;;;19.77;17.88;;;12.70;99.90;;;;;;5036195;28;20255;-74
2022/04/15 02:36:17;;;;;;;18.83;17.13;;;12.60;99.90;;;;;;5035841;28;20176;-74
2022/04/15 02:38:43;;;;;;;20.48;18.40;;;12.60;99.90;;;;;;5047346;28;20609;-76
2022/04/15 02:41:09;;;;;;;18.08;16.38;;;12.50;99.90;;;;;;5054177;28;20593;-74
2022/04/15 02:43:38;;;;;;;19.10;17.23;;;12.40;99.90;;;;;;5055418;28;20225;-74
2022/04/15 02:46:05;;;;;;;21.05;19.00;;;12.40;99.90;;;;;;5055758;28;20666;-74
2022/04/15 02:48:31;;;;;;;20.85;18.75;;;12.30;99.90;;;;;;5055856;28;20187;-74
2022/04/15 02:50:59;;;;;;;21.50;19.50;;;12.20;99.90;;;;;;5036171;28;20647;-73
2022/04/15 02:53:26;;;;;;;20.58;18.63;;;12.10;99.90;;;;;;5035691;28;20242;-74
2022/04/15 02:55:52;;;;;;;21.27;19.17;;;12.00;99.90;;;;;;5040649;28;20200;-74
2022/04/15 02:58:19;;;;;;;21.17;19.02;;;12.00;99.90;;;;;;5050704;28;20278;-75
2022/04/15 03:00:46;;;;;;;21.75;19.65;;;11.90;99.90;;;;;;5016055;28;20263;-73
2022/04/15 03:03:19;;;;;;;19.63;17.73;;;11.90;99.90;;;;;;5039573;28;20315;-73
2022/04/15 03:05:45;;;;;;;21.65;19.55;;;11.90;99.90;;;;;;5031664;28;20181;-73
2022/04/15 03:08:11;;;;;;;20.98;18.92;;;11.80;99.90;;;;;;5034309;28;20231;-74
2022/04/15 03:10:36;;;;;;;21.23;19.02;;;11.70;99.90;;;;;;5035421;28;20180;-74
2022/04/15 03:13:02;;;;;;;20.60;18.50;;;11.70;99.90;;;;;;5034542;28;20205;-73
2022/04/15 03:15:28;;;;;;;21.50;19.27;;;11.70;99.90;;;;;;5004766;28;20204;-74
2022/04/15 03:17:54;;;;;;;21.95;19.58;;;11.60;99.90;;;;;;5028436;28;20258;-73
2022/04/15 03:20:21;;;;;;;22.98;20.30;;;11.50;99.90;;;;;;5035024;28;20169;-74
2022/04/15 03:22:47;;;;;;;22.08;19.88;;;11.50;99.90;;;;;;5030482;28;20668;-73
2022/04/15 03:25:17;;;;;;;22.63;20.13;;;11.40;99.90;;;;;;5030377;28;20187;-73
2022/04/15 03:27:43;;;;;;;25.25;21.55;;;11.40;99.90;;;;;;5038417;28;20183;-73
2022/04/15 03:30:11;;;;;;;22.73;20.30;;;11.30;99.90;;;;;;5015362;28;20215;-73
2022/04/15 03:32:51;;;;;;;26.70;21.30;;;11.30;99.90;;;;;;5014238;28;20193;-73
2022/04/15 03:35:21;;;;;;;24.45;21.90;;;11.20;99.90;;;;;;5014864;28;20166;-73
2022/04/15 03:37:48;;;;;;;26.00;23.25;;;11.20;99.90;;;;;;5023151;28;20173;-73
2022/04/15 03:40:14;;;;;;;25.92;23.15;;;11.30;99.90;;;;;;5034708;28;20191;-72
2022/04/15 03:42:48;;;;;;;26.67;22.83;;;11.40;99.90;;;;;;5034293;28;20177;-73
2022/04/15 03:45:14;;;;;;;21.10;18.90;;;11.50;99.90;;;;;;5032400;28;20255;-73
2022/04/15 03:47:44;;;;;;;23.63;21.20;;;11.60;99.90;;;;;;5040607;28;20181;-72
2022/04/15 03:50:10;;;;;;;24.35;21.27;;;11.70;99.90;;;;;;5049811;28;20267;-73
2022/04/15 03:52:42;;;;;;;24.35;21.75;;;11.60;99.90;;;;;;5037527;28;20675;-72
2022/04/15 03:55:18;;;;;;;23.75;20.95;;;11.50;99.90;;;;;;5038323;28;20267;-73
2022/04/15 03:57:44;;;;;;;23.73;21.05;;;11.40;99.90;;;;;;5033688;28;20270;-74
2022/04/15 04:00:13;;;;;;;26.65;21.80;;;11.30;99.90;;;;;;5051191;28;20215;-74
2022/04/15 04:02:41;;;;;;;22.85;20.45;;;11.30;99.90;;;;;;5053880;28;20217;-74
2022/04/15 04:05:08;;;;;;;24.25;21.63;;;11.30;99.90;;;;;;5052120;28;20183;-74
2022/04/15 04:07:33;;;;;;;23.55;20.80;;;11.20;99.90;;;;;;5052712;28;20184;-74
2022/04/15 04:09:59;;;;;;;23.42;21.02;;;11.30;99.90;;;;;;5053517;28;20589;-74
2022/04/15 04:12:25;;;;;;;24.23;21.60;;;11.40;99.90;;;;;;5052728;28;20195;-74
2022/04/15 04:14:50;;;;;;;24.80;21.98;;;11.40;99.90;;;;;;5053917;28;20191;-73
2022/04/15 04:17:16;;;;;;;24.75;22.20;;;11.50;99.90;;;;;;5041455;28;20183;-74
2022/04/15 04:19:42;;;;;;;25.42;21.85;;;11.60;99.90;;;;;;5035289;28;20255;-74
2022/04/15 04:22:07;;;;;;;24.75;21.85;;;11.70;99.90;;;;;;5048436;28;20172;-74
2022/04/15 04:24:33;;;;;;;24.92;22.33;;;11.80;99.90;;;;;;5043030;28;20283;-74
2022/04/15 04:26:58;;;;;;;25.35;22.13;;;11.80;99.90;;;;;;5044493;28;20177;-74
2022/04/15 04:29:24;;;;;;;23.67;21.15;;;11.80;99.90;;;;;;5042702;28;20642;-73
2022/04/15 04:31:50;;;;;;;22.67;20.35;;;11.80;99.90;;;;;;5044559;28;20192;-74
2022/04/15 04:34:15;;;;;;;23.05;20.05;;;11.90;99.90;;;;;;5043097;28;20192;-73
2022/04/15 04:36:41;;;;;;;23.48;20.00;;;11.90;99.90;;;;;;5042250;28;20179;-73
2022/04/15 04:39:09;;;;;;;22.83;20.48;;;12.00;99.90;;;;;;5038698;28;20188;-73
2022/04/15 04:41:37;;;;;;;22.90;20.10;;;12.00;99.90;;;;;;5046153;28;20255;-73
2022/04/15 04:44:03;;;;;;;22.38;19.35;;;12.10;99.90;;;;;;5040659;28;20257;-73
2022/04/15 04:46:28;;;;;;;21.58;18.80;;;12.10;99.90;;;;;;5047633;28;20595;-74
2022/04/15 04:48:54;;;;;;;20.67;18.48;;;12.00;99.90;;;;;;5044451;28;20180;-74
2022/04/15 04:51:20;;;;;;;20.67;17.75;;;12.00;99.90;;;;;;5043872;28;20245;-76
2022/04/15 04:53:46;;;;;;;22.48;19.02;;;12.00;99.90;;;;;;5042291;28;20192;-76
2022/04/15 04:56:11;;;;;;;23.15;20.67;;;11.90;99.90;;;;;;5052442;28;20180;-76
2022/04/15 04:58:37;;;;;;;24.42;21.77;;;11.80;99.90;;;;;;5053438;28;20233;-75
2022/04/15 05:01:02;;;;;;;22.45;19.70;;;11.80;99.90;;;;;;5053416;28;20591;-75
2022/04/15 05:03:28;;;;;;;23.25;20.85;;;11.80;99.90;;;;;;5051812;28;20196;-75
2022/04/15 05:05:53;;;;;;;21.70;19.40;;;11.80;99.90;;;;;;5037454;28;20220;-76
2022/04/15 05:08:19;;;;;;;24.20;20.90;;;11.80;99.90;;;;;;5044612;28;20667;-75
2022/04/15 05:10:45;;;;;;;22.40;19.90;;;11.80;99.90;;;;;;5045097;28;20179;-75
2022/04/15 05:13:10;;;;;;;23.10;20.63;;;11.80;99.90;;;;;;5050969;28;20265;-75
2022/04/15 05:15:36;;;;;;;23.27;20.67;;;11.80;99.90;;;;;;5038335;28;20177;-75
2022/04/15 05:18:01;;;;;;;23.02;19.50;;;11.80;99.90;;;;;;5046061;28;20665;-75
2022/04/15 05:20:29;;;;;;;23.30;20.92;;;11.80;99.90;;;;;;5041067;28;20168;-75
2022/04/15 05:22:54;;;;;;;23.95;21.40;;;11.80;99.90;;;;;;5040156;28;20203;-75
2022/04/15 05:25:20;;;;;;;22.92;20.40;;;11.80;99.90;;;;;;5045062;28;20203;-76
2022/04/15 05:27:45;;;;;;;23.17;19.83;;;11.90;99.90;;;;;;5039045;28;20204;-76
2022/04/15 05:30:11;;;;;;;23.77;21.25;;;11.90;99.90;;;;;;5033677;28;20196;-78
2022/04/15 05:32:37;;;;;;;23.98;20.75;;;12.00;99.90;;;;;;5032420;28;20319;-77
2022/04/15 05:35:03;;;;;;;22.10;19.80;;;12.00;99.90;;;;;;5035884;28;20612;-76
2022/04/15 05:37:28;;;;;;;21.65;19.35;;;12.00;99.90;;;;;;5042383;28;20180;-78
2022/04/15 05:39:54;;;;;;;23.92;20.10;;;12.10;99.90;;;;;;5017467;28;20173;-78
2022/04/15 05:42:20;;;;;;;21.00;18.85;;;12.20;99.90;;;;;;5033204;28;20208;-78
2022/04/15 05:44:45;;;;;;;20.95;17.80;;;12.20;99.90;;;;;;5032968;28;20211;-77
2022/04/15 05:47:13;;;;;;;22.60;20.13;;;12.30;99.90;;;;;;5039072;28;20252;-79
2022/04/15 05:49:38;;;;;;;21.52;19.13;;;12.30;99.90;;;;;;5028278;28;20243;-79
2022/04/15 05:52:05;;;;;;;20.45;18.08;;;12.30;99.90;;;;;;5051344;28;20668;-79
2022/04/15 05:54:30;;;;;;;26.17;19.13;;;12.40;99.90;;;;;;5061234;28;20196;-79
2022/04/15 05:56:56;;;;;;;20.83;18.70;;;12.50;99.90;;;;;;5038383;28;20286;-76
2022/04/15 05:59:22;;;;;;;21.92;18.58;;;12.50;99.90;;;;;;5046188;28;20601;-77
2022/04/15 06:01:48;;;;;;;20.45;18.35;;;12.60;99.90;;;;;;5043150;28;20172;-77
2022/04/15 06:04:14;;;;;;;20.67;17.90;;;12.70;99.90;;;;;;5041459;28;20295;-76
2022/04/15 06:06:40;;;;;;;18.67;16.75;;;13.00;99.90;;;;;;5043166;28;20202;-76
2022/04/15 06:09:06;;;;;;;19.92;17.83;;;13.20;99.90;;;;;;5042501;28;20706;-76
2022/04/15 06:11:31;;;;;;;20.80;18.60;;;13.40;99.90;;;;;;5050859;28;20553;-76
2022/04/15 06:14:00;;;;;;;20.10;17.45;;;13.50;99.90;;;;;;5051002;28;20236;-78
2022/04/15 06:16:31;;;;;;;19.67;17.67;;;13.50;99.90;;;;;;5049726;28;20654;-75
2022/04/15 06:19:00;;;;;;;19.80;17.77;;;13.40;99.90;;;;;;5055729;28;20176;-76
2022/04/15 06:21:26;;;;;;;20.10;17.40;;;13.40;99.90;;;;;;5058341;28;20226;-77
2022/04/15 06:23:53;;;;;;;18.55;16.30;;;13.50;99.90;;;;;;5054977;28;20188;-82
2022/04/15 06:26:19;;;;;;;20.10;18.20;;;13.50;99.90;;;;;;5054906;28;20197;-75
2022/04/15 06:28:45;;;;;;;19.35;17.27;;;13.50;99.90;;;;;;5046954;28;20172;-76
2022/04/15 06:31:10;;;;;;;18.35;16.40;;;13.40;99.90;;;;;;5057834;28;20212;-80
2022/04/15 06:33:37;;;;;;;19.08;17.17;;;13.60;99.90;;;;;;5041236;28;20682;-82
2022/04/15 06:36:03;;;;;;;20.50;18.40;;;13.70;99.90;;;;;;5020070;28;20173;-81
2022/04/15 06:38:29;;;;;;;19.83;17.83;;;13.70;99.90;;;;;;5019631;28;20230;-78
2022/04/15 06:40:55;;;;;;;20.38;18.35;;;13.80;99.90;;;;;;5035572;28;20184;-78
2022/04/15 06:43:21;;;;;;;18.40;16.48;;;13.90;99.90;;;;;;5032751;28;20205;-77
2022/04/15 06:45:46;;;;;;;17.88;16.08;;;14.10;99.90;;;;;;5035468;28;20248;-80
2022/04/15 06:48:12;;;;;;;19.10;17.20;;;14.20;99.90;;;;;;5039707;28;20223;-77
2022/04/15 06:50:38;;;;;;;19.42;17.13;;;14.30;99.90;;;;;;5039151;28;20180;-77
2022/04/15 06:53:04;;;;;;;19.92;17.90;;;14.40;99.90;;;;;;5032870;28;20208;-81
2022/04/15 06:55:29;;;;;;;18.33;16.52;;;14.50;99.90;;;;;;5033708;28;20654;-77
2022/04/15 06:57:55;;;;;;;18.42;16.05;;;14.50;99.90;;;;;;5038396;28;20192;-78
2022/04/15 07:00:21;;;;;;;17.50;15.73;;;14.50;99.90;;;;;;5058115;28;20677;-76
2022/04/15 07:02:47;;;;;;;18.77;16.88;;;14.60;99.90;;;;;;5051653;28;20207;-77
2022/04/15 07:05:13;;;;;;;16.73;15.02;;;14.50;99.90;;;;;;5050661;28;20180;-76
2022/04/15 07:07:40;;;;;;;18.73;15.98;;;14.50;99.90;;;;;;5053498;28;20183;-75
2022/04/15 07:10:07;;;;;;;17.50;15.73;;;14.50;99.90;;;;;;5054147;28;20180;-76
2022/04/15 07:12:33;;;;;;;19.95;17.83;;;14.50;99.90;;;;;;5038445;28;20204;-74
2022/04/15 07:14:59;;;;;;;17.27;15.50;;;14.50;99.90;;;;;;5047660;28;20177;-74
2022/04/15 07:17:25;;;;;;;18.02;16.20;;;14.60;99.90;;;;;;5044055;28;20168;-74
2022/04/15 07:19:51;;;;;;;18.45;16.75;;;14.70;99.90;;;;;;5048424;28;20219;-74
2022/04/15 07:22:21;;;;;;;17.77;16.08;;;14.80;99.90;;;;;;5046303;28;20202;-74
2022/04/15 07:24:47;;;;;;;16.83;15.23;;;14.80;99.90;;;;;;5043607;28;20199;-74
2022/04/15 07:27:13;;;;;;;17.45;15.60;;;14.90;99.90;;;;;;5046139;28;20188;-74
2022/04/15 07:29:39;;;;;;;18.42;16.40;;;15.00;99.90;;;;;;5054128;28;20183;-74
2022/04/15 07:32:05;;;;;;;16.80;15.10;;;15.10;99.90;;;;;;5046151;28;20204;-74
2022/04/15 07:34:31;;;;;;;16.88;15.20;;;15.10;99.90;;;;;;5053056;28;20195;-75
2022/04/15 07:36:59;;;;;;;16.50;14.60;;;15.10;99.90;;;;;;5046631;28;20177;-74
2022/04/15 07:39:25;;;;;;;14.93;13.52;;;15.30;99.90;;;;;;5041892;28;20177;-73
2022/04/15 07:41:51;;;;;;;15.30;13.82;;;15.40;99.90;;;;;;5043103;28;20183;-73
2022/04/15 07:44:18;;;;;;;15.95;14.25;;;15.40;99.90;;;;;;5034732;28;20252;-74
2022/04/15 07:46:45;;;;;;;16.98;14.23;;;15.50;99.90;;;;;;5034748;28;20173;-73
2022/04/15 07:49:11;;;;;;;14.95;13.45;;;15.60;99.90;;;;;;5034370;28;20185;-74
2022/04/15 07:51:37;;;;;;;11.98;9.57;;;15.70;99.90;;;;;;5042534;28;20191;-73
2022/04/15 07:54:07;;;;;;;13.45;12.25;;;15.70;99.90;;;;;;5049940;28;20223;-74
2022/04/15 07:56:33;;;;;;;13.82;12.45;;;15.60;99.90;;;;;;5054534;28;20642;-74
2022/04/15 07:58:59;;;;;;;12.88;11.68;;;15.60;99.90;;;;;;5052498;28;20192;-73
2022/04/15 08:01:27;;;;;;;10.98;9.98;;;15.60;99.90;;;;;;5034422;28;20173;-73
2022/04/15 08:03:56;;;;;;;11.18;10.10;;;15.70;99.90;;;;;;5046041;28;20593;-74
2022/04/15 08:06:23;;;;;;;12.07;10.95;;;15.80;99.90;;;;;;5048677;28;20188;-74
2022/04/15 08:08:50;;;;;;;12.65;10.85;;;15.90;99.90;;;;;;5046192;28;20310;-74
2022/04/15 08:11:16;;;;;;;11.00;9.95;;;15.90;99.90;;;;;;5049210;28;20543;-74
2022/04/15 08:13:42;;;;;;;11.57;10.55;;;16.00;99.90;;;;;;5053835;28;20275;-74
2022/04/15 08:16:08;;;;;;;10.90;9.65;;;16.00;99.90;;;;;;5036574;28;20177;-74
2022/04/15 08:18:34;;;;;;;12.43;11.23;;;16.10;99.90;;;;;;5043973;28;20215;-74
2022/04/15 08:21:00;;;;;;;12.00;10.82;;;16.10;99.90;;;;;;5052796;28;20172;-75
2022/04/15 08:23:27;;;;;;;12.00;10.88;;;16.20;99.90;;;;;;5048520;28;20200;-75
2022/04/15 08:25:53;;;;;;;11.23;10.13;;;16.20;99.90;;;;;;5043215;28;20259;-75
2022/04/15 08:28:18;;;;;;;13.55;11.98;;;16.20;99.90;;;;;;5042027;28;20701;-74
2022/04/15 08:30:44;;;;;;;11.80;10.70;;;16.40;99.90;;;;;;5033842;28;20181;-74
2022/04/15 08:33:10;;;;;;;12.98;11.63;;;16.40;99.90;;;;;;5047648;28;20218;-74
2022/04/15 08:35:36;;;;;;;12.75;10.57;;;16.60;99.90;;;;;;5048875;28;20172;-74
2022/04/15 08:38:02;;;;;;;11.82;10.77;;;16.70;99.90;;;;;;5036527;28;20737;-74
2022/04/15 08:40:33;;;;;;;10.85;9.77;;;16.90;99.90;;;;;;5033981;28;20195;-74
2022/04/15 08:43:02;;;;;;;11.10;10.10;;;17.10;99.90;;;;;;5033797;28;20235;-74
2022/04/15 08:45:28;;;;;;;13.23;11.95;;;17.30;99.90;;;;;;5041310;28;20176;-74
2022/04/15 08:47:57;;;;;;;11.93;10.73;;;17.50;99.90;;;;;;5053364;28;20574;-75
2022/04/15 08:50:24;;;;;;;12.93;11.23;;;17.60;99.90;;;;;;5052052;28;20172;-73
2022/04/15 08:52:59;;;;;;;11.48;10.27;;;17.80;99.90;;;;;;5051935;28;20199;-73
2022/04/15 08:55:27;;;;;;;12.23;10.48;;;18.20;99.90;;;;;;5035281;28;20179;-74
2022/04/15 08:57:54;;;;;;;9.75;8.65;;;18.50;99.90;;;;;;5052818;28;20542;-73
2022/04/15 09:00:20;;;;;;;10.98;9.98;;;18.90;99.90;;;;;;5039323;28;20183;-74
2022/04/15 09:02:47;;;;;;;10.52;9.60;;;19.50;99.90;;;;;;5033878;28;20255;-74
2022/04/15 09:05:17;;;;;;;10.15;9.15;;;20.10;99.90;;;;;;5043094;28;20177;-74
2022/04/15 09:07:45;;;;;;;10.18;9.05;;;20.70;99.90;;;;;;5051071;28;20192;-74
2022/04/15 09:10:11;;;;;;;11.25;10.20;;;21.00;99.90;;;;;;5052164;28;20541;-74
2022/04/15 09:12:38;;;;;;;9.05;8.25;;;21.30;99.90;;;;;;5052178;28;20319;-74
2022/04/15 09:15:07;;;;;;;8.95;8.05;;;23.10;99.90;;;;;;5042906;28;20181;-74
2022/04/15 09:17:38;;;;;;;9.50;8.55;;;25.20;99.90;;;;;;5032657;28;20165;-74
2022/04/15 09:20:06;;;;;;;8.35;7.63;;;27.20;91.30;;;;;;5044754;28;20242;-74
2022/04/15 09:22:32;;;;;;;8.88;8.07;;;29.10;81.80;;;;;;5051930;28;20230;-75
2022/04/15 09:24:59;;;;;;;7.78;7.18;;;29.90;68.60;;;;;;5051055;28;20202;-72
2022/04/15 09:27:25;;;;;;;8.50;7.70;;;29.90;65.00;;;;;;5051856;28;20171;-72
2022/04/15 09:29:54;;;;;;;8.18;7.38;;;29.40;65.90;;;;;;5052213;28;20175;-72
2022/04/15 09:32:20;;;;;;;7.82;7.22;;;29.30;66.00;;;;;;5051084;28;20192;-72
2022/04/15 09:35:06;;;;;;;8.52;7.38;;;28.90;65.50;;;;;;5050892;28;20252;-72
2022/04/15 09:37:39;;;;;;;7.45;6.75;;;27.70;66.60;;;;;;5041821;28;20190;-72
2022/04/15 09:40:27;;;;;;;8.23;7.63;;;26.50;69.60;;;;;;5047957;28;20192;-72
2022/04/15 09:42:57;;;;;;;8.60;7.75;;;24.70;71.50;;;;;;5031931;28;20208;-75
2022/04/15 09:45:27;;;;;;;8.27;7.43;;;23.30;74.00;;;;;;5031831;28;20169;-75
2022/04/15 09:48:01;;;;;;;7.63;6.82;;;22.60;75.90;;;;;;5031882;28;20250;-75
2022/04/15 09:50:29;;;;;;;7.03;6.50;;;23.10;72.40;;;;;;5032160;28;20268;-75
2022/04/15 09:53:10;;;;;;;7.72;7.03;;;25.20;68.20;;;;;;5031660;28;20209;-75
2022/04/15 09:55:39;;;;;;;6.90;6.30;;;27.50;63.20;;;;;;5031933;28;20222;-72
2022/04/15 09:58:16;;;;;;;5.90;5.50;;;29.40;57.90;;;;;;5031775;28;20665;-72
2022/04/15 10:00:45;;;;;;;6.65;6.15;;;31.00;57.00;;;;;;5050006;28;20450;-72
2022/04/15 10:03:15;;;;;;;6.60;6.00;;;31.50;52.60;;;;;;5050832;28;20199;-73
2022/04/15 10:05:42;;;;;;;5.20;4.90;;;32.40;51.60;;;;;;5051354;28;20167;-73
2022/04/15 10:08:09;;;;;;;5.75;5.25;;;33.90;47.70;;;;;;5044081;28;20263;-71
2022/04/15 10:10:35;;;;;;;6.35;5.50;;;33.80;48.30;;;;;;5031559;28;20176;-71
2022/04/15 10:13:03;;;;;;;6.05;5.65;;;32.30;46.50;;;;;;5031286;28;20686;-72
2022/04/15 10:15:33;;;;;;;6.03;5.63;;;30.60;48.40;;;;;;5031885;28;20724;-73
2022/04/15 10:18:01;;;;;;;6.80;6.07;;;29.00;49.70;;;;;;5032028;28;20195;-75
2022/04/15 10:20:28;;;;;;;7.35;6.85;;;27.00;52.90;;;;;;5031668;28;20161;-75
2022/04/15 10:22:59;;;;;;;8.27;7.57;;;25.70;55.50;;;;;;5035661;28;20227;-75
2022/04/15 10:25:24;;;;;;;6.53;6.03;;;25.60;57.90;;;;;;5051078;28;20188;-75
2022/04/15 10:27:50;;;;;;;4.97;4.55;;;27.90;54.70;;;;;;5034232;28;20191;-75
2022/04/15 10:30:21;;;;;;;5.80;5.35;;;29.40;51.60;;;;;;5031579;28;20186;-75
2022/04/15 10:32:55;;;;;;;6.20;5.60;;;28.90;52.10;;;;;;5031259;28;20714;-75
2022/04/15 10:35:25;;;;;;;6.20;5.72;;;27.90;52.60;;;;;;5031567;28;20219;-75
2022/04/15 10:38:11;;;;;;;6.40;5.90;;;28.70;51.30;;;;;;5031785;28;20164;-72
2022/04/15 10:40:42;;;;;;;6.28;5.50;;;29.70;52.30;;;;;;5031364;28;20180;-73
2022/04/15 10:43:21;;;;;;;6.68;6.07;;;31.60;48.30;;;;;;5032916;28;20184;-73
2022/04/15 10:45:48;;;;;;;6.60;6.05;;;31.80;46.70;;;;;;5035456;28;20219;-73
2022/04/15 10:48:27;;;;;;;6.50;6.00;;;30.80;47.40;;;;;;5035220;28;20231;-73
2022/04/15 10:50:53;;;;;;;5.22;4.80;;;29.40;49.60;;;;;;5035313;28;20178;-73
2022/04/15 10:53:23;;;;;;;5.75;5.35;;;28.50;51.10;;;;;;5035017;28;20208;-76
2022/04/15 10:55:52;;;;;;;5.30;4.82;;;29.10;48.50;;;;;;5017147;28;20179;-75
2022/04/15 10:58:18;;;;;;;5.10;4.35;;;30.60;47.90;;;;;;5035060;28;20569;-73
2022/04/15 11:03:31;;;;;;;5.40;4.90;;;32.40;43.00;;;;;;5049253;28;20219;-79
2022/04/15 11:05:59;;;;;;;6.07;5.57;;;32.00;42.50;;;;;;5055946;28;20190;-78
2022/04/15 11:08:26;;;;;;;6.03;5.43;;;32.40;44.60;;;;;;5042484;28;20177;-78
2022/04/15 11:10:54;;;;;;;5.93;5.45;;;33.10;44.50;;;;;;5042860;28;20507;-76
2022/04/15 11:13:23;;;;;;;4.57;4.28;;;33.40;43.40;;;;;;5041093;28;20203;-77
2022/04/15 11:16:16;;;;;;;4.20;3.90;;;34.70;42.30;;;;;;5042719;28;20216;-77
2022/04/15 11:19:01;;;;;;;5.40;4.65;;;36.00;39.50;;;;;;5035034;28;20188;-75
2022/04/15 11:21:39;;;;;;;5.45;5.05;;;35.60;41.60;;;;;;5043417;28;20176;-72
2022/04/15 11:24:05;;;;;;;5.50;5.00;;;34.80;40.70;;;;;;5040324;28;20261;-73
2022/04/15 11:26:33;;;;;;;5.55;5.05;;;32.30;43.00;;;;;;5047375;28;20169;-72
2022/04/15 11:29:03;;;;;;;5.85;5.45;;;30.20;47.10;;;;;;5048647;28;20177;-71
2022/04/15 11:31:40;;;;;;;6.00;5.43;;;28.60;49.80;;;;;;5045536;28;20172;-74
2022/04/15 11:34:08;;;;;;;6.47;5.93;;;29.10;50.60;;;;;;5051609;28;20198;-72
2022/04/15 11:36:41;;;;;;;6.10;5.60;;;30.40;48.30;;;;;;5054412;28;20211;-72
2022/04/15 11:39:09;;;;;;;6.25;5.65;;;31.30;47.60;;;;;;5052828;28;20579;-72
2022/04/15 11:41:34;;;;;;;7.32;6.82;;;31.10;46.20;;;;;;5053396;28;20176;-74
2022/04/15 11:44:06;;;;;;;5.47;5.07;;;29.70;47.10;;;;;;5036639;28;20205;-74
2022/04/15 11:46:52;;;;;;;5.28;4.88;;;28.00;49.90;;;;;;5034266;28;20189;-75
2022/04/15 11:49:27;;;;;;;5.32;4.78;;;27.30;51.70;;;;;;5036206;28;20226;-75
2022/04/15 11:51:57;;;;;;;4.20;3.90;;;29.20;51.10;;;;;;5050082;28;20199;-75
2022/04/15 11:54:29;;;;;;;4.53;4.18;;;30.80;45.30;;;;;;5045280;28;20727;-75
2022/04/15 11:56:55;;;;;;;5.50;5.00;;;30.40;45.90;;;;;;5072736;28;20577;-75
2022/04/15 11:59:21;;;;;;;4.85;4.45;;;31.50;45.70;;;;;;5056008;28;20180;-74
2022/04/15 12:01:47;;;;;;;4.55;4.15;;;32.00;47.00;;;;;;5042019;28;20196;-72
2022/04/15 12:04:12;;;;;;;5.55;4.63;;;32.40;45.00;;;;;;5044100;28;20686;-71
2022/04/15 12:06:41;;;;;;;4.40;4.05;;;31.40;45.10;;;;;;5046468;28;20183;-74
2022/04/15 12:09:14;;;;;;;3.40;3.20;;;31.50;45.50;;;;;;5044313;28;20183;-75
2022/04/15 12:11:41;;;;;;;4.55;4.18;;;32.10;44.20;;;;;;5046123;28;20173;-74
2022/04/15 12:14:07;;;;;;;3.53;3.30;;;31.40;43.60;;;;;;5043306;28;20196;-75
2022/04/15 12:16:40;;;;;;;5.20;4.80;;;31.40;44.00;;;;;;5048149;28;20168;-75
2022/04/15 12:19:07;;;;;;;5.03;4.30;;;31.30;44.80;;;;;;5053672;28;20593;-74
2022/04/15 12:21:34;;;;;;;3.67;3.38;;;30.90;46.10;;;;;;5037076;28;20267;-72
2022/04/15 12:24:13;;;;;;;2.80;2.60;;;31.90;44.80;;;;;;5039040;28;20202;-72
2022/04/15 12:26:51;;;;;;;3.17;2.97;;;33.80;42.20;;;;;;5045395;28;20171;-72
2022/04/15 12:32:25;;;;;;;3.13;2.92;;;32.60;41.80;;;;;;5039638;28;20250;-73
2022/04/15 12:34:59;;;;;;;3.13;2.97;;;31.70;42.50;;;;;;5046095;28;20199;-72
2022/04/15 12:37:43;;;;;;;3.40;3.20;;;31.50;42.00;;;;;;5047998;28;20191;-73
2022/04/15 12:40:30;;;;;;;3.10;2.78;;;31.80;41.20;;;;;;5045308;28;20180;-72
2022/04/15 12:43:17;;;;;;;3.28;3.08;;;31.80;40.80;;;;;;5038052;28;20206;-74